sensor_id;sensor_type;location;lat;lon;timestamp;pressure;altitude;pressure_sealevel;temperature;humidity
17362;BME280;8798;51.938;4.348;2023-02-10T00:00:47;103385.81;;;4.11;75.79
17362;BME280;8798;51.938;4.348;2023-02-10T00:03:14;103389.34;;;4.12;75.43
17362;BME280;8798;51.938;4.348;2023-02-10T00:05:42;103395.53;;;4.12;75.33
17362;BME280;8798;51.938;4.348;2023-02-10T00:08:10;103394.66;;;4.12;75.71
17362;BME280;8798;51.938;4.348;2023-02-10T00:10:39;103404.34;;;4.14;75.68
17362;BME280;8798;51.938;4.348;2023-02-10T00:13:07;103418.47;;;4.16;75.43
17362;BME280;8798;51.938;4.348;2023-02-10T00:15:36;103425.56;;;4.16;75.53
17362;BME280;8798;51.938;4.348;2023-02-10T00:18:04;103444.03;;;4.20;75.80
17362;BME280;8798;51.938;4.348;2023-02-10T00:20:32;103456.41;;;4.23;75.80
17362;BME280;8798;51.938;4.348;2023-02-10T00:23:00;103462.59;;;4.23;75.80
17362;BME280;8798;51.938;4.348;2023-02-10T00:25:27;103467.84;;;4.25;75.73
17362;BME280;8798;51.938;4.348;2023-02-10T00:27:57;103471.41;;;4.25;75.72
17362;BME280;8798;51.938;4.348;2023-02-10T00:30:24;103473.16;;;4.25;75.90
17362;BME280;8798;51.938;4.348;2023-02-10T00:32:52;103474.94;;;4.24;75.97
17362;BME280;8798;51.938;4.348;2023-02-10T00:35:20;103465.25;;;4.23;75.65
17362;BME280;8798;51.938;4.348;2023-02-10T00:37:48;103458.22;;;4.21;76.00
17362;BME280;8798;51.938;4.348;2023-02-10T00:40:16;103454.72;;;4.19;75.91
17362;BME280;8798;51.938;4.348;2023-02-10T00:42:44;103444.13;;;4.17;75.92
17362;BME280;8798;51.938;4.348;2023-02-10T00:45:13;103444.13;;;4.17;75.99
17362;BME280;8798;51.938;4.348;2023-02-10T00:47:41;103442.41;;;4.16;75.96
17362;BME280;8798;51.938;4.348;2023-02-10T00:50:09;103447.72;;;4.16;75.97
17362;BME280;8798;51.938;4.348;2023-02-10T00:52:37;103448.63;;;4.15;75.87
17362;BME280;8798;51.938;4.348;2023-02-10T00:55:05;103443.28;;;4.15;76.02
17362;BME280;8798;51.938;4.348;2023-02-10T00:57:33;103427.44;;;4.12;76.79
17362;BME280;8798;51.938;4.348;2023-02-10T01:00:01;103429.25;;;4.10;76.04
17362;BME280;8798;51.938;4.348;2023-02-10T01:02:30;103432.00;;;4.08;75.93
17362;BME280;8798;51.938;4.348;2023-02-10T01:04:58;103419.66;;;4.06;75.84
17362;BME280;8798;51.938;4.348;2023-02-10T01:07:26;103403.72;;;4.04;76.85
17362;BME280;8798;51.938;4.348;2023-02-10T01:09:55;103401.09;;;4.03;75.96
17362;BME280;8798;51.938;4.348;2023-02-10T01:12:23;103400.31;;;4.01;75.90
17362;BME280;8798;51.938;4.348;2023-02-10T01:14:51;103397.69;;;3.99;75.86
17362;BME280;8798;51.938;4.348;2023-02-10T01:17:19;103389.81;;;3.96;75.72
17362;BME280;8798;51.938;4.348;2023-02-10T01:19:48;103388.09;;;3.94;76.41
17362;BME280;8798;51.938;4.348;2023-02-10T01:22:17;103371.31;;;3.92;76.19
17362;BME280;8798;51.938;4.348;2023-02-10T01:24:45;103372.22;;;3.91;75.97
17362;BME280;8798;51.938;4.348;2023-02-10T01:27:13;103356.38;;;3.87;76.40
17362;BME280;8798;51.938;4.348;2023-02-10T01:29:41;103357.31;;;3.86;76.18
17362;BME280;8798;51.938;4.348;2023-02-10T01:32:09;103354.69;;;3.85;76.07
17362;BME280;8798;51.938;4.348;2023-02-10T01:34:37;103352.94;;;3.84;76.09
17362;BME280;8798;51.938;4.348;2023-02-10T01:37:06;103351.19;;;3.83;76.13
17362;BME280;8798;51.938;4.348;2023-02-10T01:39:34;103349.50;;;3.80;76.09
17362;BME280;8798;51.938;4.348;2023-02-10T01:42:02;103353.91;;;3.81;76.36
17362;BME280;8798;51.938;4.348;2023-02-10T01:47:35;103363.63;;;3.82;76.27
17362;BME280;8798;51.938;4.348;2023-02-10T01:50:03;103380.44;;;3.83;76.11
17362;BME280;8798;51.938;4.348;2023-02-10T01:52:32;103382.22;;;3.82;76.56
17362;BME280;8798;51.938;4.348;2023-02-10T01:55:04;103363.69;;;3.81;76.05
17362;BME280;8798;51.938;4.348;2023-02-10T01:57:33;103365.50;;;3.79;76.55
17362;BME280;8798;51.938;4.348;2023-02-10T02:00:03;103368.22;;;3.76;76.59
17362;BME280;8798;51.938;4.348;2023-02-10T02:02:31;103362.13;;;3.74;76.59
17362;BME280;8798;51.938;4.348;2023-02-10T02:05:03;103346.19;;;3.72;76.47
17362;BME280;8798;51.938;4.348;2023-02-10T02:07:35;103345.38;;;3.70;76.23
17362;BME280;8798;51.938;4.348;2023-02-10T02:10:05;103341.88;;;3.68;76.39
17362;BME280;8798;51.938;4.348;2023-02-10T02:12:39;103350.75;;;3.69;76.31
17362;BME280;8798;51.938;4.348;2023-02-10T02:15:14;103336.56;;;3.68;76.65
17362;BME280;8798;51.938;4.348;2023-02-10T02:17:50;103338.41;;;3.66;76.18
17362;BME280;8798;51.938;4.348;2023-02-10T02:26:55;103357.91;;;3.65;76.55
17362;BME280;8798;51.938;4.348;2023-02-10T02:29:45;103359.69;;;3.66;76.30
17362;BME280;8798;51.938;4.348;2023-02-10T02:32:23;103376.41;;;3.70;76.31
17362;BME280;8798;51.938;4.348;2023-02-10T02:34:58;103386.06;;;3.72;76.12
17362;BME280;8798;51.938;4.348;2023-02-10T02:37:29;103401.97;;;3.74;76.41
17362;BME280;8798;51.938;4.348;2023-02-10T02:39:58;103401.97;;;3.74;76.79
17362;BME280;8798;51.938;4.348;2023-02-10T02:42:28;103410.81;;;3.74;76.42
17362;BME280;8798;51.938;4.348;2023-02-10T02:44:58;103412.63;;;3.74;76.89
17362;BME280;8798;51.938;4.348;2023-02-10T02:47:42;103409.06;;;3.73;76.54
17362;BME280;8798;51.938;4.348;2023-02-10T02:50:22;103410.84;;;3.73;76.32
17362;BME280;8798;51.938;4.348;2023-02-10T02:53:03;103412.66;;;3.72;76.93
17362;BME280;8798;51.938;4.348;2023-02-10T02:55:38;103417.09;;;3.72;76.61
17362;BME280;8798;51.938;4.348;2023-02-10T02:58:13;103415.34;;;3.71;76.54
17362;BME280;8798;51.938;4.348;2023-02-10T03:00:44;103410.09;;;3.67;76.49
17362;BME280;8798;51.938;4.348;2023-02-10T03:03:15;103396.06;;;3.64;77.09
17362;BME280;8798;51.938;4.348;2023-02-10T03:05:43;103393.44;;;3.62;76.42
17362;BME280;8798;51.938;4.348;2023-02-10T03:08:11;103382.81;;;3.61;76.46
17362;BME280;8798;51.938;4.348;2023-02-10T03:10:39;103373.16;;;3.58;76.77
17362;BME280;8798;51.938;4.348;2023-02-10T03:13:07;103388.19;;;3.59;77.14
17362;BME280;8798;51.938;4.348;2023-02-10T03:15:35;103383.75;;;3.60;76.48
17362;BME280;8798;51.938;4.348;2023-02-10T03:18:03;103389.09;;;3.58;76.75
17362;BME280;8798;51.938;4.348;2023-02-10T03:20:32;103394.41;;;3.58;76.45
17362;BME280;8798;51.938;4.348;2023-02-10T03:23:00;103392.69;;;3.57;76.52
17362;BME280;8798;51.938;4.348;2023-02-10T03:25:28;103386.53;;;3.55;76.98
17362;BME280;8798;51.938;4.348;2023-02-10T03:27:55;103390.97;;;3.55;76.63
17362;BME280;8798;51.938;4.348;2023-02-10T03:30:23;103390.97;;;3.55;77.31
17362;BME280;8798;51.938;4.348;2023-02-10T03:32:51;103401.63;;;3.55;77.23
17362;BME280;8798;51.938;4.348;2023-02-10T03:35:19;103404.25;;;3.56;76.83
17362;BME280;8798;51.938;4.348;2023-02-10T03:37:49;103406.91;;;3.56;76.82
17362;BME280;8798;51.938;4.348;2023-02-10T03:40:17;103414.88;;;3.56;77.16
17362;BME280;8798;51.938;4.348;2023-02-10T03:42:45;103421.00;;;3.58;77.33
17362;BME280;8798;51.938;4.348;2023-02-10T03:45:13;103424.56;;;3.57;77.08
17362;BME280;8798;51.938;4.348;2023-02-10T03:47:40;103426.31;;;3.58;77.26
17362;BME280;8798;51.938;4.348;2023-02-10T03:50:08;103431.63;;;3.58;77.40
17362;BME280;8798;51.938;4.348;2023-02-10T03:52:36;103443.16;;;3.59;77.11
17362;BME280;8798;51.938;4.348;2023-02-10T03:55:06;103438.69;;;3.59;77.33
17362;BME280;8798;51.938;4.348;2023-02-10T03:57:34;103444.00;;;3.59;77.17
17362;BME280;8798;51.938;4.348;2023-02-10T04:00:03;103457.22;;;3.61;77.41
17362;BME280;8798;51.938;4.348;2023-02-10T04:02:30;103456.34;;;3.62;76.86
17362;BME280;8798;51.938;4.348;2023-02-10T04:04:58;103461.66;;;3.62;77.05
17362;BME280;8798;51.938;4.348;2023-02-10T04:07:26;103478.44;;;3.64;77.25
17362;BME280;8798;51.938;4.348;2023-02-10T04:09:54;103480.16;;;3.65;76.65
17362;BME280;8798;51.938;4.348;2023-02-10T04:12:23;103477.50;;;3.65;76.96
17362;BME280;8798;51.938;4.348;2023-02-10T04:14:51;103486.34;;;3.65;76.89
17362;BME280;8798;51.938;4.348;2023-02-10T04:17:18;103490.78;;;3.66;76.70
17362;BME280;8798;51.938;4.348;2023-02-10T04:19:46;103502.25;;;3.67;77.61
17362;BME280;8798;51.938;4.348;2023-02-10T04:22:14;103498.75;;;3.66;77.09
17362;BME280;8798;51.938;4.348;2023-02-10T04:24:42;103498.75;;;3.66;77.21
17362;BME280;8798;51.938;4.348;2023-02-10T04:27:10;103495.22;;;3.66;77.61
17362;BME280;8798;51.938;4.348;2023-02-10T04:29:39;103500.53;;;3.66;77.39
17362;BME280;8798;51.938;4.348;2023-02-10T04:32:07;103506.75;;;3.65;77.44
17362;BME280;8798;51.938;4.348;2023-02-10T04:34:35;103494.38;;;3.64;76.94
17362;BME280;8798;51.938;4.348;2023-02-10T04:37:03;103504.09;;;3.65;77.34
17362;BME280;8798;51.938;4.348;2023-02-10T04:39:30;103499.69;;;3.64;77.24
17362;BME280;8798;51.938;4.348;2023-02-10T04:41:58;103496.13;;;3.63;77.35
17362;BME280;8798;51.938;4.348;2023-02-10T04:44:26;103507.66;;;3.64;77.19
17362;BME280;8798;51.938;4.348;2023-02-10T04:46:55;103498.00;;;3.61;77.15
17362;BME280;8798;51.938;4.348;2023-02-10T04:49:23;103495.34;;;3.61;77.32
17362;BME280;8798;51.938;4.348;2023-02-10T04:51:51;103493.53;;;3.62;77.72
17362;BME280;8798;51.938;4.348;2023-02-10T04:54:19;103498.03;;;3.60;77.16
17362;BME280;8798;51.938;4.348;2023-02-10T04:56:47;103506.84;;;3.60;77.24
17362;BME280;8798;51.938;4.348;2023-02-10T04:59:15;103505.13;;;3.59;77.33
17362;BME280;8798;51.938;4.348;2023-02-10T05:01:43;103506.00;;;3.60;77.34
17362;BME280;8798;51.938;4.348;2023-02-10T05:04:12;103501.59;;;3.59;77.66
17362;BME280;8798;51.938;4.348;2023-02-10T05:06:40;103502.50;;;3.58;77.89
17362;BME280;8798;51.938;4.348;2023-02-10T05:09:08;103500.72;;;3.58;77.79
17362;BME280;8798;51.938;4.348;2023-02-10T05:11:36;103509.56;;;3.59;77.59
17362;BME280;8798;51.938;4.348;2023-02-10T05:14:04;103510.47;;;3.58;77.59
17362;BME280;8798;51.938;4.348;2023-02-10T05:16:31;103513.97;;;3.60;77.84
17362;BME280;8798;51.938;4.348;2023-02-10T05:19:00;103519.28;;;3.60;77.48
17362;BME280;8798;51.938;4.348;2023-02-10T05:21:29;103523.66;;;3.61;77.51
17362;BME280;8798;51.938;4.348;2023-02-10T05:23:57;103525.47;;;3.60;77.33
17362;BME280;8798;51.938;4.348;2023-02-10T05:26:25;103526.31;;;3.61;77.26
17362;BME280;8798;51.938;4.348;2023-02-10T05:28:53;103531.63;;;3.61;77.48
17362;BME280;8798;51.938;4.348;2023-02-10T05:31:20;103528.13;;;3.60;77.59
17362;BME280;8798;51.938;4.348;2023-02-10T05:33:49;103529.91;;;3.60;78.10
17362;BME280;8798;51.938;4.348;2023-02-10T05:36:16;103528.97;;;3.61;77.81
17362;BME280;8798;51.938;4.348;2023-02-10T05:38:46;103530.78;;;3.60;77.80
17362;BME280;8798;51.938;4.348;2023-02-10T05:41:27;103532.56;;;3.60;77.94
17362;BME280;8798;51.938;4.348;2023-02-10T05:43:55;103531.69;;;3.59;77.50
17362;BME280;8798;51.938;4.348;2023-02-10T05:46:23;103534.34;;;3.59;77.42
17362;BME280;8798;51.938;4.348;2023-02-10T05:48:51;103528.19;;;3.59;77.44
17362;BME280;8798;51.938;4.348;2023-02-10T05:51:19;103527.28;;;3.58;77.72
17362;BME280;8798;51.938;4.348;2023-02-10T05:53:48;103530.84;;;3.59;77.51
17362;BME280;8798;51.938;4.348;2023-02-10T05:56:16;103539.66;;;3.59;78.12
17362;BME280;8798;51.938;4.348;2023-02-10T05:58:44;103549.34;;;3.62;77.50
17362;BME280;8798;51.938;4.348;2023-02-10T06:01:12;103559.88;;;3.65;77.72
17362;BME280;8798;51.938;4.348;2023-02-10T06:03:39;103570.50;;;3.66;78.02
17362;BME280;8798;51.938;4.348;2023-02-10T06:06:08;103591.66;;;3.71;77.58
17362;BME280;8798;51.938;4.348;2023-02-10T06:08:35;103608.41;;;3.73;78.03
17362;BME280;8798;51.938;4.348;2023-02-10T06:11:05;103615.44;;;3.76;77.83
17362;BME280;8798;51.938;4.348;2023-02-10T06:13:33;103615.41;;;3.77;77.94
17362;BME280;8798;51.938;4.348;2023-02-10T06:16:01;103616.31;;;3.76;77.57
17362;BME280;8798;51.938;4.348;2023-02-10T06:18:30;103613.66;;;3.76;78.02
17362;BME280;8798;51.938;4.348;2023-02-10T06:20:58;103610.09;;;3.76;77.91
17362;BME280;8798;51.938;4.348;2023-02-10T06:23:26;103618.09;;;3.76;78.31
17362;BME280;8798;51.938;4.348;2023-02-10T06:25:54;103615.44;;;3.76;78.35
17362;BME280;8798;51.938;4.348;2023-02-10T06:28:25;103628.69;;;3.77;78.55
17362;BME280;8798;51.938;4.348;2023-02-10T06:30:54;103633.91;;;3.80;77.81
17362;BME280;8798;51.938;4.348;2023-02-10T06:33:22;103635.72;;;3.80;77.97
17362;BME280;8798;51.938;4.348;2023-02-10T06:35:50;103633.91;;;3.80;77.75
17362;BME280;8798;51.938;4.348;2023-02-10T06:38:18;103633.91;;;3.80;78.32
17362;BME280;8798;51.938;4.348;2023-02-10T06:40:46;103638.34;;;3.81;78.51
17362;BME280;8798;51.938;4.348;2023-02-10T06:43:16;103641.00;;;3.81;78.00
17362;BME280;8798;51.938;4.348;2023-02-10T06:45:46;103645.44;;;3.81;78.00
17362;BME280;8798;51.938;4.348;2023-02-10T06:48:14;103643.66;;;3.81;77.71
17362;BME280;8798;51.938;4.348;2023-02-10T06:50:42;103645.41;;;3.82;78.26
17362;BME280;8798;51.938;4.348;2023-02-10T06:53:10;103644.53;;;3.82;77.99
17362;BME280;8798;51.938;4.348;2023-02-10T06:55:38;103661.31;;;3.84;78.34
17362;BME280;8798;51.938;4.348;2023-02-10T06:58:05;103660.38;;;3.86;78.45
17362;BME280;8798;51.938;4.348;2023-02-10T07:00:33;103679.81;;;3.88;78.45
17362;BME280;8798;51.938;4.348;2023-02-10T07:03:03;103688.59;;;3.92;78.26
17362;BME280;8798;51.938;4.348;2023-02-10T07:05:31;103695.66;;;3.93;78.10
17362;BME280;8798;51.938;4.348;2023-02-10T07:08:01;103696.53;;;3.94;78.17
17362;BME280;8798;51.938;4.348;2023-02-10T07:10:32;103704.44;;;3.95;78.50
17362;BME280;8798;51.938;4.348;2023-02-10T07:13:00;103697.41;;;3.94;78.35
17362;BME280;8798;51.938;4.348;2023-02-10T07:15:27;103705.38;;;3.94;78.50
17362;BME280;8798;51.938;4.348;2023-02-10T07:17:55;103693.91;;;3.92;78.50
17362;BME280;8798;51.938;4.348;2023-02-10T07:20:25;103686.78;;;3.93;78.12
17362;BME280;8798;51.938;4.348;2023-02-10T07:22:53;103692.09;;;3.93;78.27
17362;BME280;8798;51.938;4.348;2023-02-10T07:25:20;103697.44;;;3.93;78.26
17362;BME280;8798;51.938;4.348;2023-02-10T07:27:48;103686.84;;;3.91;78.70
17362;BME280;8798;51.938;4.348;2023-02-10T07:30:16;103689.50;;;3.91;78.43
17362;BME280;8798;51.938;4.348;2023-02-10T07:32:44;103694.78;;;3.93;78.74
17362;BME280;8798;51.938;4.348;2023-02-10T07:35:12;103695.66;;;3.93;78.38
17362;BME280;8798;51.938;4.348;2023-02-10T07:37:41;103694.75;;;3.94;78.88
17362;BME280;8798;51.938;4.348;2023-02-10T07:40:10;103713.34;;;3.96;78.39
17362;BME280;8798;51.938;4.348;2023-02-10T07:42:38;103714.19;;;3.96;78.70
17362;BME280;8798;51.938;4.348;2023-02-10T07:45:07;103721.25;;;3.97;78.28
17362;BME280;8798;51.938;4.348;2023-02-10T07:47:34;103730.94;;;4.00;78.42
17362;BME280;8798;51.938;4.348;2023-02-10T07:50:03;103734.44;;;4.02;78.65
17362;BME280;8798;51.938;4.348;2023-02-10T07:52:31;103739.75;;;4.02;78.40
17362;BME280;8798;51.938;4.348;2023-02-10T07:55:00;103733.50;;;4.03;78.42
17362;BME280;8798;51.938;4.348;2023-02-10T07:57:30;103735.31;;;4.02;78.83
17362;BME280;8798;51.938;4.348;2023-02-10T07:59:58;103737.09;;;4.02;78.72
17362;BME280;8798;51.938;4.348;2023-02-10T08:02:26;103727.41;;;3.99;78.54
17362;BME280;8798;51.938;4.348;2023-02-10T08:04:53;103722.09;;;3.99;78.60
17362;BME280;8798;51.938;4.348;2023-02-10T08:07:22;103721.16;;;4.00;78.58
17362;BME280;8798;51.938;4.348;2023-02-10T08:09:50;103725.63;;;4.00;78.75
17362;BME280;8798;51.938;4.348;2023-02-10T08:12:19;103726.50;;;4.00;78.58
17362;BME280;8798;51.938;4.348;2023-02-10T08:14:47;103731.81;;;4.00;78.76
17362;BME280;8798;51.938;4.348;2023-02-10T08:17:14;103728.28;;;4.00;78.87
17362;BME280;8798;51.938;4.348;2023-02-10T08:19:42;103730.03;;;4.01;78.82
17362;BME280;8798;51.938;4.348;2023-02-10T08:22:10;103729.16;;;4.00;78.84
17362;BME280;8798;51.938;4.348;2023-02-10T08:24:38;103730.06;;;3.99;78.84
17362;BME280;8798;51.938;4.348;2023-02-10T08:27:06;103728.28;;;4.00;78.60
17362;BME280;8798;51.938;4.348;2023-02-10T08:29:36;103723.88;;;3.99;78.74
17362;BME280;8798;51.938;4.348;2023-02-10T08:32:04;103719.47;;;3.98;78.67
17362;BME280;8798;51.938;4.348;2023-02-10T08:34:32;103716.81;;;3.98;79.00
17362;BME280;8798;51.938;4.348;2023-02-10T08:37:00;103715.94;;;3.97;78.63
17362;BME280;8798;51.938;4.348;2023-02-10T08:39:28;103725.69;;;3.98;78.52
17362;BME280;8798;51.938;4.348;2023-02-10T08:41:56;103729.19;;;3.99;78.96
17362;BME280;8798;51.938;4.348;2023-02-10T08:44:24;103726.53;;;3.99;79.05
17362;BME280;8798;51.938;4.348;2023-02-10T08:46:53;103725.63;;;4.00;79.20
17362;BME280;8798;51.938;4.348;2023-02-10T08:49:21;103743.28;;;4.02;79.08
17362;BME280;8798;51.938;4.348;2023-02-10T08:51:51;103750.31;;;4.05;79.37
17362;BME280;8798;51.938;4.348;2023-02-10T08:54:20;103758.28;;;4.06;78.82
17362;BME280;8798;51.938;4.348;2023-02-10T08:56:52;103769.75;;;4.08;78.98
17362;BME280;8798;51.938;4.348;2023-02-10T08:59:21;103782.09;;;4.11;78.48
17362;BME280;8798;51.938;4.348;2023-02-10T09:01:49;103790.94;;;4.13;79.12
17362;BME280;8798;51.938;4.348;2023-02-10T09:04:19;103792.63;;;4.16;79.21
17362;BME280;8798;51.938;4.348;2023-02-10T09:06:48;103806.75;;;4.18;79.13
17362;BME280;8798;51.938;4.348;2023-02-10T09:09:18;103825.31;;;4.21;79.10
17362;BME280;8798;51.938;4.348;2023-02-10T09:11:48;103829.69;;;4.23;79.24
17362;BME280;8798;51.938;4.348;2023-02-10T09:14:16;103831.44;;;4.24;78.98
17362;BME280;8798;51.938;4.348;2023-02-10T09:16:44;103835.84;;;4.25;78.95
17362;BME280;8798;51.938;4.348;2023-02-10T09:19:12;103845.56;;;4.28;79.16
17362;BME280;8798;51.938;4.348;2023-02-10T09:21:41;103841.03;;;4.30;79.11
17362;BME280;8798;51.938;4.348;2023-02-10T09:24:13;103865.81;;;4.34;78.88
17362;BME280;8798;51.938;4.348;2023-02-10T09:26:41;103869.31;;;4.36;79.03
17362;BME280;8798;51.938;4.348;2023-02-10T09:29:09;103879.91;;;4.37;79.12
17362;BME280;8798;51.938;4.348;2023-02-10T09:31:38;103877.22;;;4.39;79.27
17362;BME280;8798;51.938;4.348;2023-02-10T09:34:06;103880.75;;;4.39;79.18
17362;BME280;8798;51.938;4.348;2023-02-10T09:36:34;103887.84;;;4.40;79.08
17362;BME280;8798;51.938;4.348;2023-02-10T09:39:03;103893.97;;;4.42;79.17
17362;BME280;8798;51.938;4.348;2023-02-10T09:41:40;103908.97;;;4.46;79.34
17362;BME280;8798;51.938;4.348;2023-02-10T09:44:15;103919.53;;;4.49;79.31
17362;BME280;8798;51.938;4.348;2023-02-10T09:46:53;103937.19;;;4.53;79.35
17362;BME280;8798;51.938;4.348;2023-02-10T09:49:52;103958.38;;;4.58;79.07
17362;BME280;8798;51.938;4.348;2023-02-10T09:52:29;103973.34;;;4.64;79.46
17362;BME280;8798;51.938;4.348;2023-02-10T09:55:01;103981.25;;;4.67;79.44
17362;BME280;8798;51.938;4.348;2023-02-10T09:57:35;103999.78;;;4.71;79.05
17362;BME280;8798;51.938;4.348;2023-02-10T10:00:15;104008.59;;;4.75;79.24
17362;BME280;8798;51.938;4.348;2023-02-10T10:02:51;104020.91;;;4.79;79.41
17362;BME280;8798;51.938;4.348;2023-02-10T10:05:33;104045.66;;;4.84;79.28
17362;BME280;8798;51.938;4.348;2023-02-10T10:08:14;104054.41;;;4.89;79.47
17362;BME280;8798;51.938;4.348;2023-02-10T10:10:46;104073.88;;;4.93;79.07
17362;BME280;8798;51.938;4.348;2023-02-10T10:13:23;104086.22;;;4.97;79.46
17362;BME280;8798;51.938;4.348;2023-02-10T10:16:05;104102.97;;;5.02;79.48
17362;BME280;8798;51.938;4.348;2023-02-10T10:18:43;104117.94;;;5.08;79.75
17362;BME280;8798;51.938;4.348;2023-02-10T10:21:21;104130.28;;;5.12;79.06
17362;BME280;8798;51.938;4.348;2023-02-10T10:24:01;104139.94;;;5.16;79.62
17362;BME280;8798;51.938;4.348;2023-02-10T10:26:50;104155.84;;;5.21;79.45
17362;BME280;8798;51.938;4.348;2023-02-10T10:29:28;104161.09;;;5.24;79.50
17362;BME280;8798;51.938;4.348;2023-02-10T10:32:04;104177.03;;;5.27;79.66
17362;BME280;8798;51.938;4.348;2023-02-10T10:34:42;104181.38;;;5.31;79.04
17362;BME280;8798;51.938;4.348;2023-02-10T10:37:15;104191.94;;;5.34;79.15
17362;BME280;8798;51.938;4.348;2023-02-10T10:39:47;104196.34;;;5.36;79.60
17362;BME280;8798;51.938;4.348;2023-02-10T10:42:22;104203.41;;;5.39;79.14
17362;BME280;8798;51.938;4.348;2023-02-10T10:44:55;104211.28;;;5.44;79.14
17362;BME280;8798;51.938;4.348;2023-02-10T10:47:38;104224.50;;;5.48;79.37
17362;BME280;8798;51.938;4.348;2023-02-10T10:50:12;104239.53;;;5.52;79.71
17362;BME280;8798;51.938;4.348;2023-02-10T10:52:43;104257.19;;;5.58;79.36
17362;BME280;8798;51.938;4.348;2023-02-10T10:55:16;104273.94;;;5.65;79.36
17362;BME280;8798;51.938;4.348;2023-02-10T10:57:48;104299.50;;;5.73;79.57
17362;BME280;8798;51.938;4.348;2023-02-10T11:00:20;104342.84;;;5.85;79.07
17362;BME280;8798;51.938;4.348;2023-02-10T11:02:54;104387.03;;;5.98;78.93
17362;BME280;8798;51.938;4.348;2023-02-10T11:05:28;104423.28;;;6.08;79.76
17362;BME280;8798;51.938;4.348;2023-02-10T11:07:57;104455.09;;;6.19;79.74
17362;BME280;8798;51.938;4.348;2023-02-10T11:10:29;104494.03;;;6.28;79.05
17362;BME280;8798;51.938;4.348;2023-02-10T11:12:59;104501.94;;;6.34;79.22
17362;BME280;8798;51.938;4.348;2023-02-10T11:15:32;104508.13;;;6.36;80.18
17362;BME280;8798;51.938;4.348;2023-02-10T11:18:02;104514.28;;;6.39;80.13
17362;BME280;8798;51.938;4.348;2023-02-10T11:20:33;104510.66;;;6.42;78.91
17362;BME280;8798;51.938;4.348;2023-02-10T11:23:04;104502.63;;;6.43;80.25
17362;BME280;8798;51.938;4.348;2023-02-10T11:25:40;104498.13;;;6.45;80.08
17362;BME280;8798;51.938;4.348;2023-02-10T11:28:18;104507.81;;;6.50;79.30
17362;BME280;8798;51.938;4.348;2023-02-10T11:30:53;104535.28;;;6.56;79.67
17362;BME280;8798;51.938;4.348;2023-02-10T11:33:24;104555.53;;;6.65;80.23
17362;BME280;8798;51.938;4.348;2023-02-10T11:35:56;104575.00;;;6.72;79.46
17362;BME280;8798;51.938;4.348;2023-02-10T11:38:25;104591.78;;;6.78;79.92
17362;BME280;8798;51.938;4.348;2023-02-10T11:40:55;104611.19;;;6.86;79.01
17362;BME280;8798;51.938;4.348;2023-02-10T11:43:28;104627.97;;;6.93;79.87
17362;BME280;8798;51.938;4.348;2023-02-10T11:45:58;104642.13;;;6.98;79.57
17362;BME280;8798;51.938;4.348;2023-02-10T11:48:27;104649.13;;;7.04;79.65
17362;BME280;8798;51.938;4.348;2023-02-10T11:51:05;104664.13;;;7.11;79.42
17362;BME280;8798;51.938;4.348;2023-02-10T11:53:36;104676.47;;;7.17;79.89
17362;BME280;8798;51.938;4.348;2023-02-10T11:56:08;104688.84;;;7.22;79.09
17362;BME280;8798;51.938;4.348;2023-02-10T11:58:49;104708.25;;;7.30;78.89
17362;BME280;8798;51.938;4.348;2023-02-10T12:01:51;104728.53;;;7.39;79.25
17362;BME280;8798;51.938;4.348;2023-02-10T12:04:43;104738.25;;;7.45;79.27
17362;BME280;8798;51.938;4.348;2023-02-10T12:07:21;104744.31;;;7.51;79.65
17362;BME280;8798;51.938;4.348;2023-02-10T12:09:52;104762.94;;;7.56;79.50
17362;BME280;8798;51.938;4.348;2023-02-10T12:12:29;104764.66;;;7.60;80.05
17362;BME280;8798;51.938;4.348;2023-02-10T12:15:08;104761.88;;;7.65;79.08
17362;BME280;8798;51.938;4.348;2023-02-10T12:17:48;104773.34;;;7.70;78.85
17362;BME280;8798;51.938;4.348;2023-02-10T12:20:37;104785.69;;;7.77;79.30
17362;BME280;8798;51.938;4.348;2023-02-10T12:23:32;104798.00;;;7.84;79.42
17362;BME280;8798;51.938;4.348;2023-02-10T12:26:09;104810.34;;;7.91;79.56
17362;BME280;8798;51.938;4.348;2023-02-10T12:28:46;104832.47;;;7.98;79.12
17362;BME280;8798;51.938;4.348;2023-02-10T12:31:28;104856.28;;;8.10;78.60
17362;BME280;8798;51.938;4.348;2023-02-10T12:34:19;104886.41;;;8.20;78.73
17362;BME280;8798;51.938;4.348;2023-02-10T12:36:57;104911.19;;;8.30;78.71
17362;BME280;8798;51.938;4.348;2023-02-10T12:39:34;104928.84;;;8.40;78.87
17362;BME280;8798;51.938;4.348;2023-02-10T12:42:17;104930.56;;;8.44;79.23
17362;BME280;8798;51.938;4.348;2023-02-10T12:44:56;104921.59;;;8.45;78.56
17362;BME280;8798;51.938;4.348;2023-02-10T12:47:37;104910.84;;;8.47;78.62
17362;BME280;8798;51.938;4.348;2023-02-10T12:50:24;104890.34;;;8.46;78.99
17362;BME280;8798;51.938;4.348;2023-02-10T12:52:58;104879.56;;;8.47;78.52
17362;BME280;8798;51.938;4.348;2023-02-10T12:55:33;104867.94;;;8.48;78.42
17362;BME280;8798;51.938;4.348;2023-02-10T12:58:12;104866.09;;;8.50;78.53
17362;BME280;8798;51.938;4.348;2023-02-10T13:00:44;104854.38;;;8.54;78.34
17362;BME280;8798;51.938;4.348;2023-02-10T13:03:17;104890.75;;;8.65;77.92
17362;BME280;8798;51.938;4.348;2023-02-10T13:05:50;104887.94;;;8.69;77.94
17362;BME280;8798;51.938;4.348;2023-02-10T13:08:24;104894.09;;;8.73;78.15
17362;BME280;8798;51.938;4.348;2023-02-10T13:10:57;104876.19;;;8.75;78.15
17362;BME280;8798;51.938;4.348;2023-02-10T13:13:28;104875.22;;;8.77;77.88
17362;BME280;8798;51.938;4.348;2023-02-10T13:15:58;104860.03;;;8.78;77.99
17362;BME280;8798;51.938;4.348;2023-02-10T13:18:30;104857.31;;;8.79;77.68
17362;BME280;8798;51.938;4.348;2023-02-10T13:21:03;104847.41;;;8.83;77.52
17362;BME280;8798;51.938;4.348;2023-02-10T13:23:38;104850.91;;;8.85;77.71
17362;BME280;8798;51.938;4.348;2023-02-10T13:26:22;104839.25;;;8.86;77.82
17362;BME280;8798;51.938;4.348;2023-02-10T13:28:59;104804.41;;;8.86;77.33
17362;BME280;8798;51.938;4.348;2023-02-10T13:31:52;104794.56;;;8.87;77.10
17362;BME280;8798;51.938;4.348;2023-02-10T13:34:27;104784.72;;;8.87;77.42
17362;BME280;8798;51.938;4.348;2023-02-10T13:36:57;104786.41;;;8.90;77.08
17362;BME280;8798;51.938;4.348;2023-02-10T13:39:28;104773.94;;;8.90;77.45